createdAt,value
2023-05-09T00:01:59.969Z,101825.59
2023-05-09T00:04:26.674Z,101808.97
2023-05-09T00:06:53.154Z,101805.94
2023-05-09T00:09:19.554Z,101806.16
2023-05-09T00:11:45.949Z,101798.66
2023-05-09T00:14:13.961Z,101798.94
2023-05-09T00:16:40.653Z,101796.13
2023-05-09T00:19:07.526Z,101781.91
2023-05-09T00:21:34.219Z,101794.69
2023-05-09T00:24:01.107Z,101789.00
2023-05-09T00:26:28.058Z,101789.00
2023-05-09T00:28:54.451Z,101781.31
2023-05-09T00:31:21.009Z,101777.84
2023-05-09T00:33:47.460Z,101778.13
2023-05-09T00:36:13.915Z,101765.81
2023-05-09T00:38:40.315Z,101765.69
2023-05-09T00:41:06.773Z,101768.63
2023-05-09T00:43:33.161Z,101769.47
2023-05-09T00:45:59.660Z,101761.78
2023-05-09T00:48:26.220Z,101774.03
2023-05-09T00:50:53.197Z,101745.31
2023-05-09T00:53:23.024Z,101759.69
2023-05-09T00:55:49.468Z,101763.59
2023-05-09T00:58:16.807Z,101755.63
2023-05-09T01:00:43.468Z,101755.34
2023-05-09T01:03:10.128Z,101759.53
2023-05-09T01:05:54.721Z,101745.47
2023-05-09T01:08:48.836Z,101753.66
2023-05-09T01:11:28.456Z,101718.72
2023-05-09T01:14:08.352Z,101748.97
2023-05-09T01:16:45.866Z,101738.91
2023-05-09T01:19:24.463Z,101743.09
2023-05-09T01:21:52.596Z,101730.25
2023-05-09T01:24:51.621Z,101681.09
2023-05-09T01:27:28.637Z,101731.09
2023-05-09T01:30:02.118Z,101672.44
2023-05-09T01:32:31.919Z,101721.59
2023-05-09T01:35:01.472Z,101721.91
2023-05-09T01:37:34.186Z,101709.00
2023-05-09T01:40:11.553Z,101669.34
2023-05-09T01:43:01.036Z,101722.44
2023-05-09T01:45:29.713Z,101720.94
2023-05-09T01:47:58.152Z,101713.41
2023-05-09T01:50:25.726Z,101706.41
2023-05-09T01:52:56.321Z,101704.44
2023-05-09T01:55:28.171Z,101708.63
2023-05-09T01:57:56.485Z,101693.59
2023-05-09T02:00:24.332Z,101693.28
2023-05-09T02:02:52.073Z,101690.78
2023-05-09T02:05:18.994Z,101682.13
2023-05-09T02:07:47.429Z,101688.81
2023-05-09T02:10:15.983Z,101682.66
2023-05-09T02:12:42.498Z,101674.31
2023-05-09T02:15:09.485Z,101649.25
2023-05-09T02:17:35.922Z,101667.94
2023-05-09T02:20:02.342Z,101678.78
2023-05-09T02:22:28.795Z,101659.69
2023-05-09T02:24:55.323Z,101681.72
2023-05-09T02:27:22.574Z,101658.22
2023-05-09T02:29:51.466Z,101645.63
2023-05-09T02:32:27.068Z,101649.81
2023-05-09T02:34:54.532Z,101667.31
2023-05-09T02:37:22.208Z,101661.56
2023-05-09T02:39:48.638Z,101671.75
2023-05-09T02:42:25.403Z,101681.38
2023-05-09T02:44:55.412Z,101674.50
2023-05-09T02:47:22.339Z,101662.53
2023-05-09T02:49:48.915Z,101664.06
2023-05-09T02:52:15.300Z,101655.41
2023-05-09T02:54:41.755Z,101654.56
2023-05-09T02:57:08.160Z,101649.81
2023-05-09T02:59:34.612Z,101650.94
2023-05-09T03:02:01.210Z,101644.50
2023-05-09T03:04:27.712Z,101644.78
2023-05-09T03:06:54.289Z,101621.03
2023-05-09T03:09:20.733Z,101631.94
2023-05-09T03:11:47.161Z,101625.75
2023-05-09T03:14:14.875Z,101594.88
2023-05-09T03:16:41.537Z,101631.53
2023-05-09T03:19:08.515Z,101643.41
2023-05-09T03:21:34.944Z,101624.69
2023-05-09T03:24:01.404Z,101600.00
2023-05-09T03:26:27.839Z,101614.38
2023-05-09T03:28:54.259Z,101592.34
2023-05-09T03:31:20.820Z,101614.19
2023-05-09T03:33:47.300Z,101606.25
2023-05-09T03:36:14.400Z,101606.25
2023-05-09T03:38:40.824Z,101599.72
2023-05-09T03:41:07.254Z,101592.91
2023-05-09T03:43:33.671Z,101597.59
2023-05-09T03:46:00.124Z,101572.81
2023-05-09T03:48:26.818Z,101575.59
2023-05-09T03:50:53.288Z,101565.72
2023-05-09T03:53:20.593Z,101577.56
2023-05-09T03:55:47.156Z,101565.03
2023-05-09T03:58:13.706Z,101567.56
2023-05-09T04:00:41.108Z,101566.72
2023-05-09T04:03:07.753Z,101570.66
2023-05-09T04:05:35.377Z,101568.69
2023-05-09T04:08:02.544Z,101576.63
2023-05-09T04:10:30.072Z,101582.34
2023-05-09T04:12:56.793Z,101563.66
2023-05-09T04:15:23.349Z,101567.84
2023-05-09T04:17:49.775Z,101572.84
2023-05-09T04:20:16.321Z,101565.19
2023-05-09T04:22:43.903Z,101553.34
2023-05-09T04:25:12.519Z,101560.84
2023-05-09T04:27:39.060Z,101567.84
2023-05-09T04:30:06.670Z,101564.22
2023-05-09T04:32:33.588Z,101546.38
2023-05-09T04:35:00.030Z,101558.19
2023-05-09T04:37:26.429Z,101557.22
2023-05-09T04:39:52.855Z,101535.38
2023-05-09T04:42:19.255Z,101538.94
2023-05-09T04:44:45.937Z,101536.59
2023-05-09T04:47:12.333Z,101549.66
2023-05-09T04:49:38.857Z,101535.84
2023-05-09T04:52:05.422Z,101513.72
2023-05-09T04:54:31.862Z,101501.03
2023-05-09T04:57:09.990Z,101534.97
2023-05-09T04:59:40.698Z,101531.19
2023-05-09T05:02:07.145Z,101528.66
2023-05-09T05:04:33.762Z,101496.50
2023-05-09T05:07:00.434Z,101526.09
2023-05-09T05:09:26.823Z,101508.81
2023-05-09T05:12:00.719Z,101528.97
2023-05-09T05:14:28.446Z,101507.38
2023-05-09T05:16:54.992Z,101512.59
2023-05-09T05:19:21.403Z,101512.50
2023-05-09T05:21:47.804Z,101496.44
2023-05-09T05:24:14.201Z,101504.53
2023-05-09T05:26:40.722Z,101506.28
2023-05-09T05:29:07.278Z,101490.03
2023-05-09T05:31:33.717Z,101480.69
2023-05-09T05:34:00.183Z,101491.22
2023-05-09T05:36:26.620Z,101487.78
2023-05-09T05:38:53.017Z,101487.59
2023-05-09T05:41:19.417Z,101498.31
2023-05-09T05:43:45.846Z,101491.19
2023-05-09T05:46:12.301Z,101481.00
2023-05-09T05:48:38.743Z,101477.53
2023-05-09T05:51:05.144Z,101455.22
2023-05-09T05:53:32.777Z,101467.56
2023-05-09T05:55:59.423Z,101467.56
2023-05-09T05:58:26.461Z,101448.75
2023-05-09T06:00:53.049Z,101456.59
2023-05-09T06:03:19.585Z,101442.25
2023-05-09T06:05:47.439Z,101464.25
2023-05-09T06:08:13.909Z,101476.06
2023-05-09T06:10:40.399Z,101458.94
2023-05-09T06:13:07.224Z,101463.25
2023-05-09T06:15:33.695Z,101453.00
2023-05-09T06:18:00.396Z,101451.47
2023-05-09T06:20:27.222Z,101442.31
2023-05-09T06:22:53.723Z,101436.47
2023-05-09T06:25:20.162Z,101423.31
2023-05-09T06:27:46.625Z,101450.13
2023-05-09T06:30:24.539Z,101438.47
2023-05-09T06:32:54.955Z,101438.00
2023-05-09T06:35:21.755Z,101447.31
2023-05-09T06:37:49.139Z,101402.78
2023-05-09T06:40:16.336Z,101449.66
2023-05-09T06:42:42.780Z,101394.63
2023-05-09T06:45:09.666Z,101423.38
2023-05-09T06:47:36.260Z,101419.19
2023-05-09T06:50:02.782Z,101424.84
2023-05-09T06:52:29.237Z,101419.88
2023-05-09T06:54:55.687Z,101423.88
2023-05-09T06:57:22.188Z,101419.53
2023-05-09T06:59:48.601Z,101424.41
2023-05-09T07:02:15.014Z,101428.25
2023-05-09T07:04:41.438Z,101421.59
2023-05-09T07:07:08.014Z,101409.94
2023-05-09T07:09:34.426Z,101421.81
2023-05-09T07:12:01.709Z,101416.13
2023-05-09T07:14:28.170Z,101416.34
2023-05-09T07:17:00.063Z,101413.69
2023-05-09T07:19:36.719Z,101408.38
2023-05-09T07:22:03.165Z,101406.34
2023-05-09T07:24:29.627Z,101386.72
2023-05-09T07:26:56.020Z,101390.56
2023-05-09T07:29:22.447Z,101393.06
2023-05-09T07:31:48.888Z,101388.59
2023-05-09T07:34:16.653Z,101376.56
2023-05-09T07:36:43.150Z,101399.56
2023-05-09T07:39:10.635Z,101392.94
2023-05-09T07:41:37.056Z,101393.97
2023-05-09T07:44:03.461Z,101391.66
2023-05-09T07:46:29.991Z,101376.66
2023-05-09T07:48:56.451Z,101379.53
2023-05-09T07:51:22.959Z,101372.19
2023-05-09T07:53:49.490Z,101381.72
2023-05-09T07:56:16.425Z,101380.03
2023-05-09T07:58:42.864Z,101337.47
2023-05-09T08:01:09.274Z,101369.31
2023-05-09T08:03:35.894Z,101363.16
2023-05-09T08:06:02.397Z,101346.72
2023-05-09T08:08:28.816Z,101355.72
2023-05-09T08:10:56.126Z,101341.59
2023-05-09T08:13:22.646Z,101335.97
2023-05-09T08:15:49.399Z,101333.00
2023-05-09T08:18:16.066Z,101343.50
2023-05-09T08:20:42.717Z,101331.00
2023-05-09T08:23:09.402Z,101331.38
2023-05-09T08:25:35.829Z,101315.38
2023-05-09T08:28:02.251Z,101294.56
2023-05-09T08:30:29.564Z,101326.06
2023-05-09T08:32:56.487Z,101303.56
2023-05-09T08:35:23.653Z,101312.91
2023-05-09T08:37:50.192Z,101301.78
2023-05-09T08:40:17.354Z,101308.59
2023-05-09T08:42:46.034Z,101298.91
2023-05-09T08:45:16.803Z,101305.94
2023-05-09T08:47:44.594Z,101251.72
2023-05-09T08:50:11.896Z,101295.97
2023-05-09T08:52:38.712Z,101299.84
2023-05-09T08:55:05.619Z,101291.50
2023-05-09T08:57:33.369Z,101279.56
2023-05-09T08:59:59.862Z,101293.84
2023-05-09T09:02:26.379Z,101284.25
2023-05-09T09:04:54.948Z,101294.53
2023-05-09T09:07:22.528Z,101281.91
2023-05-09T09:09:49.799Z,101288.53
2023-05-09T09:12:17.331Z,101282.72
2023-05-09T09:14:50.228Z,101271.75
2023-05-09T09:17:19.563Z,101283.88
2023-05-09T09:19:49.891Z,101247.84
2023-05-09T09:22:19.739Z,101263.47
2023-05-09T09:24:46.555Z,101264.97
2023-05-09T09:27:13.009Z,101274.78
2023-05-09T09:29:39.416Z,101268.63
2023-05-09T09:32:06.654Z,101247.19
2023-05-09T09:34:33.372Z,101245.69
2023-05-09T09:36:59.835Z,101239.88
2023-05-09T09:39:26.248Z,101252.19
2023-05-09T09:41:52.752Z,101257.88
2023-05-09T09:44:21.279Z,101256.00
2023-05-09T09:46:52.625Z,101189.84
2023-05-09T09:49:21.273Z,101208.47
2023-05-09T09:51:58.526Z,101248.69
2023-05-09T09:54:29.034Z,101242.41
2023-05-09T09:56:56.951Z,101247.41
2023-05-09T09:59:25.760Z,101244.75
2023-05-09T10:02:08.395Z,101220.44
2023-05-09T10:04:40.609Z,101192.03
2023-05-09T10:07:12.753Z,101233.75
2023-05-09T10:09:41.288Z,101201.34
2023-05-09T10:12:08.941Z,101242.06
2023-05-09T10:14:38.233Z,101231.28
2023-05-09T10:17:05.853Z,101221.81
2023-05-09T10:19:33.078Z,101230.25
2023-05-09T10:22:05.639Z,101232.94
2023-05-09T10:24:44.312Z,101174.25
2023-05-09T10:27:11.877Z,101220.97
2023-05-09T10:29:44.376Z,101206.34
2023-05-09T10:32:23.480Z,101221.81
2023-05-09T10:34:54.585Z,101177.75
2023-05-09T10:37:22.217Z,101211.16
2023-05-09T10:39:53.159Z,101196.53
2023-05-09T10:42:20.275Z,101216.94
2023-05-09T10:44:47.045Z,101195.03
2023-05-09T10:47:14.927Z,101208.16
2023-05-09T10:49:42.386Z,101195.19
2023-05-09T10:52:08.987Z,101196.84
2023-05-09T10:54:36.882Z,101144.00
2023-05-09T10:57:05.667Z,101199.19
2023-05-09T10:59:43.248Z,101201.00
2023-05-09T11:02:15.960Z,101190.56
2023-05-09T11:04:44.110Z,101184.56
2023-05-09T11:07:30.155Z,101191.41
2023-05-09T11:10:10.251Z,101189.25
2023-05-09T11:12:57.424Z,101169.13
2023-05-09T11:15:24.543Z,101174.94
2023-05-09T11:18:05.516Z,101166.00
2023-05-09T11:20:35.605Z,101172.31
2023-05-09T11:23:05.892Z,101163.16
2023-05-09T11:25:32.992Z,101163.16
2023-05-09T11:28:01.802Z,101156.34
2023-05-09T11:30:42.068Z,101146.53
2023-05-09T11:33:27.317Z,101150.34
2023-05-09T11:36:19.961Z,101149.75
2023-05-09T11:38:47.424Z,101142.56
2023-05-09T11:41:14.617Z,101142.41
2023-05-09T11:43:43.176Z,101121.44
2023-05-09T11:46:09.713Z,101141.41
2023-05-09T11:48:40.575Z,101139.25
2023-05-09T11:51:07.531Z,101125.44
2023-05-09T11:53:34.233Z,101128.94
2023-05-09T11:56:04.719Z,101133.94
2023-05-09T11:58:31.415Z,101131.59
2023-05-09T12:00:58.438Z,101121.44
2023-05-09T12:03:25.259Z,101117.13
2023-05-09T12:05:51.928Z,101118.13
2023-05-09T12:08:18.497Z,101115.31
2023-05-09T12:10:45.015Z,101118.78
2023-05-09T12:13:12.077Z,101086.44
2023-05-09T12:15:38.955Z,101124.09
2023-05-09T12:18:08.949Z,101116.81
2023-05-09T12:20:47.201Z,101108.50
2023-05-09T12:23:14.941Z,101112.81
2023-05-09T12:25:48.975Z,101098.03
2023-05-09T12:28:16.280Z,101101.53
2023-05-09T12:30:44.282Z,101096.38
2023-05-09T12:33:12.363Z,101088.88
2023-05-09T12:35:40.238Z,101106.50
2023-05-09T12:38:06.706Z,101096.69
2023-05-09T12:40:33.150Z,101103.53
2023-05-09T12:43:02.647Z,101072.28
2023-05-09T12:45:32.812Z,101074.47
2023-05-09T12:48:00.828Z,101104.84
2023-05-09T12:50:36.483Z,101096.53
2023-05-09T12:53:04.430Z,101093.53
2023-05-09T12:55:32.753Z,101083.91
2023-05-09T12:58:03.447Z,101065.63
2023-05-09T13:00:42.648Z,101067.47
2023-05-09T13:03:22.305Z,101062.00
2023-05-09T13:05:59.611Z,101083.56
2023-05-09T13:08:26.424Z,101065.63
2023-05-09T13:11:00.776Z,101066.94
2023-05-09T13:13:31.646Z,101032.75
2023-05-09T13:15:58.048Z,101060.97
2023-05-09T13:18:24.630Z,101054.47
2023-05-09T13:20:51.547Z,101061.09
2023-05-09T13:23:18.154Z,101062.41
2023-05-09T13:25:44.635Z,101060.41
2023-05-09T13:28:11.049Z,101052.78
2023-05-09T13:30:37.563Z,101027.19
2023-05-09T13:33:16.650Z,101039.66
2023-05-09T13:35:51.106Z,101052.09
2023-05-09T13:38:17.607Z,101022.25
2023-05-09T13:40:44.049Z,101034.31
2023-05-09T13:43:10.518Z,101032.63
2023-05-09T13:45:37.193Z,101017.69
2023-05-09T13:48:04.039Z,101017.69
2023-05-09T13:50:30.468Z,101032.78
2023-05-09T13:52:56.892Z,101028.13
2023-05-09T13:55:23.350Z,101024.28
2023-05-09T13:57:49.757Z,101031.63
2023-05-09T14:00:17.780Z,101031.78
2023-05-09T14:02:44.416Z,101037.81
2023-05-09T14:05:10.848Z,101001.13
2023-05-09T14:07:37.358Z,101004.44
2023-05-09T14:12:34.217Z,101024.00
2023-05-09T14:15:01.452Z,101028.66
2023-05-09T14:17:27.888Z,101018.34
2023-05-09T14:19:54.349Z,100987.50
2023-05-09T14:22:21.523Z,101007.72
2023-05-09T14:24:48.070Z,101004.53
2023-05-09T14:27:14.532Z,100978.00
2023-05-09T14:29:41.552Z,100995.06
2023-05-09T14:32:08.102Z,100995.88
2023-05-09T14:34:35.012Z,100972.13
2023-05-09T14:37:01.721Z,100975.59
2023-05-09T14:39:28.504Z,100984.53
2023-05-09T14:41:54.955Z,100965.47
2023-05-09T14:44:21.413Z,100970.47
2023-05-09T14:46:48.296Z,100962.34
2023-05-09T14:49:14.805Z,100979.94
2023-05-09T14:51:41.238Z,100977.16
2023-05-09T14:54:07.769Z,100973.16
2023-05-09T14:56:34.175Z,100971.00
2023-05-09T14:59:00.620Z,100959.53
2023-05-09T15:01:27.085Z,100955.56
2023-05-09T15:03:53.738Z,100948.25
2023-05-09T15:06:20.263Z,100969.16
2023-05-09T15:08:46.761Z,100967.81
2023-05-09T15:11:13.193Z,100948.56
2023-05-09T15:13:39.612Z,100955.19
2023-05-09T15:16:06.200Z,100961.13
2023-05-09T15:18:33.940Z,100950.34
2023-05-09T15:21:00.789Z,100947.22
2023-05-09T15:23:27.365Z,100946.53
2023-05-09T15:25:53.894Z,100918.88
2023-05-09T15:28:20.307Z,100942.25
2023-05-09T15:30:46.778Z,100913.59
2023-05-09T15:33:13.343Z,100953.53
2023-05-09T15:35:40.125Z,100962.50
2023-05-09T15:38:07.850Z,100937.63
2023-05-09T15:40:34.320Z,100947.94
2023-05-09T15:43:00.840Z,100942.81
2023-05-09T15:45:27.345Z,100959.06
2023-05-09T15:47:53.950Z,100946.00
2023-05-09T15:50:20.587Z,100918.75
2023-05-09T15:52:46.988Z,100920.72
2023-05-09T15:55:13.497Z,100934.69
2023-05-09T15:57:39.978Z,100950.06
2023-05-09T16:00:07.137Z,100928.03
2023-05-09T16:02:33.720Z,100930.19
2023-05-09T16:05:00.213Z,100933.38
2023-05-09T16:07:26.779Z,100936.66
2023-05-09T16:09:53.596Z,100913.78
2023-05-09T16:12:20.064Z,100934.00
2023-05-09T16:14:46.731Z,100902.78
2023-05-09T16:17:13.250Z,100925.38
2023-05-09T16:19:39.784Z,100868.31
2023-05-09T16:22:06.226Z,100905.59
2023-05-09T16:24:32.698Z,100886.22
2023-05-09T16:27:02.020Z,100915.91
2023-05-09T16:29:28.602Z,100814.78
2023-05-09T16:31:55.116Z,100914.72
2023-05-09T16:34:21.573Z,100886.19
2023-05-09T16:36:48.628Z,100914.41
2023-05-09T16:39:15.289Z,100897.16
2023-05-09T16:41:41.786Z,100912.25
2023-05-09T16:44:08.631Z,100884.53
2023-05-09T16:46:35.336Z,100888.53
2023-05-09T16:49:02.273Z,100859.72
2023-05-09T16:51:29.217Z,100859.19
2023-05-09T16:53:55.603Z,100895.69
2023-05-09T16:56:22.548Z,100896.63
2023-05-09T16:58:49.392Z,100868.34
2023-05-09T17:01:16.047Z,100879.41
2023-05-09T17:03:42.536Z,100886.88
2023-05-09T17:06:09.033Z,100866.34
2023-05-09T17:08:35.667Z,100862.72
2023-05-09T17:11:02.145Z,100859.72
2023-05-09T17:13:28.783Z,100870.66
2023-05-09T17:15:55.886Z,100885.91
2023-05-09T17:18:35.988Z,100889.56
2023-05-09T17:21:04.102Z,100864.53
2023-05-09T17:23:30.541Z,100873.34
2023-05-09T17:25:56.995Z,100881.97
2023-05-09T17:28:23.407Z,100847.81
2023-05-09T17:30:49.856Z,100884.75
2023-05-09T17:33:16.306Z,100855.78
2023-05-09T17:35:43.073Z,100857.41
2023-05-09T17:38:09.568Z,100876.19
2023-05-09T17:40:36.006Z,100857.78
2023-05-09T17:43:02.468Z,100872.84
2023-05-09T17:45:29.017Z,100864.06
2023-05-09T17:47:55.579Z,100875.03
2023-05-09T17:50:22.129Z,100863.63
2023-05-09T17:52:49.522Z,100859.63
2023-05-09T17:55:15.987Z,100868.41
2023-05-09T17:57:43.274Z,100872.44
2023-05-09T18:00:10.822Z,100880.34
2023-05-09T18:02:37.286Z,100881.38
2023-05-09T18:05:04.821Z,100882.16
2023-05-09T18:07:32.005Z,100881.53
2023-05-09T18:09:58.573Z,100867.13
2023-05-09T18:12:27.503Z,100868.28
2023-05-09T18:14:55.348Z,100867.44
2023-05-09T18:17:21.845Z,100862.66
2023-05-09T18:19:48.253Z,100879.06
2023-05-09T18:22:15.664Z,100870.28
2023-05-09T18:24:42.112Z,100884.41
2023-05-09T18:27:08.588Z,100877.75
2023-05-09T18:29:35.018Z,100867.66
2023-05-09T18:32:02.049Z,100883.38
2023-05-09T18:34:28.807Z,100873.13
2023-05-09T18:36:55.831Z,100863.34
2023-05-09T18:39:22.255Z,100865.19
2023-05-09T18:41:48.648Z,100861.72
2023-05-09T18:44:15.162Z,100867.50
2023-05-09T18:46:41.681Z,100871.81
2023-05-09T18:49:09.493Z,100866.38
2023-05-09T18:51:36.546Z,100882.94
2023-05-09T18:54:03.153Z,100875.63
2023-05-09T18:56:29.628Z,100867.31
2023-05-09T18:58:56.101Z,100872.84
2023-05-09T19:01:24.458Z,100862.84
2023-05-09T19:03:54.244Z,100871.13
2023-05-09T19:06:21.701Z,100887.59
2023-05-09T19:08:48.662Z,100870.16
2023-05-09T19:11:16.059Z,100859.84
2023-05-09T19:13:48.466Z,100851.91
2023-05-09T19:16:17.165Z,100892.72
2023-05-09T19:18:43.642Z,100877.13
2023-05-09T19:23:57.095Z,100882.09
2023-05-09T19:26:23.671Z,100887.91
2023-05-09T19:28:50.136Z,100893.88
2023-05-09T19:31:18.770Z,100888.72
2023-05-09T19:33:47.526Z,100883.06
2023-05-09T19:36:14.168Z,100880.91
2023-05-09T19:38:40.593Z,100911.09
2023-05-09T19:41:07.062Z,100914.91
2023-05-09T19:43:33.461Z,100882.53
2023-05-09T19:46:00.101Z,100886.34
2023-05-09T19:48:26.785Z,100890.63
2023-05-09T19:50:57.784Z,100896.25
2023-05-09T19:53:24.760Z,100886.31
2023-05-09T19:55:51.782Z,100904.06
2023-05-09T19:58:18.348Z,100908.34
2023-05-09T20:00:45.120Z,100919.47
2023-05-09T20:03:11.808Z,100915.00
2023-05-09T20:08:21.959Z,100922.31
2023-05-09T20:10:48.364Z,100918.13
2023-05-09T20:13:14.876Z,100918.44
2023-05-09T20:15:41.333Z,100925.28
2023-05-09T20:18:07.755Z,100900.84
2023-05-09T20:20:34.298Z,100929.03
2023-05-09T20:23:00.745Z,100871.63
2023-05-09T20:25:27.178Z,100923.06
2023-05-09T20:27:53.584Z,100916.59
2023-05-09T20:30:21.068Z,100935.19
2023-05-09T20:32:47.550Z,100924.38
2023-05-09T20:35:14.093Z,100942.94
2023-05-09T20:37:40.645Z,100923.38
2023-05-09T20:40:08.526Z,100928.03
2023-05-09T20:42:35.289Z,100935.47
2023-05-09T20:45:02.219Z,100932.13
2023-05-09T20:47:28.848Z,100933.13
2023-05-09T20:49:57.545Z,100928.28
2023-05-09T20:52:24.708Z,100945.19
2023-05-09T20:54:51.201Z,100940.53
2023-05-09T20:57:17.616Z,100942.38
2023-05-09T20:59:44.282Z,100929.28
2023-05-09T21:02:11.237Z,100945.91
2023-05-09T21:04:37.704Z,100933.44
2023-05-09T21:07:04.125Z,100890.25
2023-05-09T21:09:30.509Z,100907.06
2023-05-09T21:11:57.195Z,100910.50
2023-05-09T21:14:23.603Z,100928.81
2023-05-09T21:16:51.742Z,100913.44
2023-05-09T21:19:18.244Z,100926.94
2023-05-09T21:21:44.666Z,100922.22
2023-05-09T21:24:11.063Z,100915.69
2023-05-09T21:26:37.526Z,100883.09
2023-05-09T21:29:03.971Z,100919.13
2023-05-09T21:31:30.551Z,100903.41
2023-05-09T21:33:59.047Z,100929.13
2023-05-09T21:36:25.868Z,100903.91
2023-05-09T21:38:52.441Z,100880.16
2023-05-09T21:41:18.828Z,100914.91
2023-05-09T21:43:45.607Z,100883.81
2023-05-09T21:46:12.457Z,100884.19
2023-05-09T21:48:38.907Z,100898.50
2023-05-09T21:51:07.517Z,100898.81
2023-05-09T21:53:33.913Z,100859.63
2023-05-09T21:56:00.453Z,100871.06
2023-05-09T21:58:26.973Z,100896.84
2023-05-09T22:00:54.375Z,100883.06
2023-05-09T22:03:20.868Z,100802.81
2023-05-09T22:05:47.409Z,100895.31
2023-05-09T22:08:13.825Z,100894.19
2023-05-09T22:10:40.789Z,100897.31
2023-05-09T22:13:07.228Z,100883.88
2023-05-09T22:15:33.707Z,100863.56
2023-05-09T22:18:00.279Z,100909.25
2023-05-09T22:20:26.902Z,100894.66
2023-05-09T22:22:53.291Z,100894.97
2023-05-09T22:25:19.673Z,100895.16
2023-05-09T22:27:46.121Z,100884.53
2023-05-09T22:30:12.734Z,100853.28
2023-05-09T22:32:39.846Z,100874.16
2023-05-09T22:35:06.904Z,100877.19
2023-05-09T22:37:33.376Z,100892.97
2023-05-09T22:40:01.471Z,100850.59
2023-05-09T22:42:29.361Z,100876.84
2023-05-09T22:44:55.999Z,100894.63
2023-05-09T22:47:22.465Z,100856.41
2023-05-09T22:49:49.841Z,100881.28
2023-05-09T22:52:16.343Z,100889.84
2023-05-09T22:54:42.773Z,100875.19
2023-05-09T22:57:09.657Z,100889.31
2023-05-09T22:59:36.988Z,100881.16
2023-05-09T23:02:04.730Z,100883.28
2023-05-09T23:04:31.195Z,100877.31
2023-05-09T23:06:57.650Z,100880.44
2023-05-09T23:09:24.146Z,100898.03
2023-05-09T23:11:50.616Z,100885.94
2023-05-09T23:14:17.227Z,100893.06
2023-05-09T23:16:44.065Z,100895.25
2023-05-09T23:19:10.497Z,100894.78
2023-05-09T23:21:36.899Z,100897.94
2023-05-09T23:24:03.468Z,100887.13
2023-05-09T23:26:29.872Z,100880.63
2023-05-09T23:28:56.659Z,100891.31
2023-05-09T23:31:23.126Z,100889.31
2023-05-09T23:33:49.711Z,100883.34
2023-05-09T23:36:16.144Z,100869.72
2023-05-09T23:38:42.736Z,100878.19
2023-05-09T23:41:09.209Z,100874.03
2023-05-09T23:43:35.616Z,100882.88
2023-05-09T23:46:02.069Z,100840.66
2023-05-09T23:48:28.815Z,100846.63
2023-05-09T23:50:55.248Z,100895.81
2023-05-09T23:53:21.995Z,100866.91
2023-05-09T23:55:48.531Z,100872.19
2023-05-09T23:58:14.958Z,100878.91
